sensor_id;sensor_type;location;lat;lon;timestamp;pressure;altitude;pressure_sealevel;temperature;humidity
78317;BME280;67572;50.930;18.276;2023-04-03T00:00:21;99670.28;;;1.27;73.39
78317;BME280;67572;50.930;18.276;2023-04-03T00:03:25;99668.69;;;1.20;73.45
78317;BME280;67572;50.930;18.276;2023-04-03T00:06:28;99680.25;;;1.11;72.57
78317;BME280;67572;50.930;18.276;2023-04-03T00:09:33;99683.84;;;1.07;73.16
78317;BME280;67572;50.930;18.276;2023-04-03T00:12:36;99686.53;;;1.02;73.28
78317;BME280;67572;50.930;18.276;2023-04-03T00:15:40;99689.06;;;1.07;73.39
78317;BME280;67572;50.930;18.276;2023-04-03T00:18:43;99679.66;;;0.98;73.69
78317;BME280;67572;50.930;18.276;2023-04-03T00:21:47;99691.16;;;0.90;73.33
78317;BME280;67572;50.930;18.276;2023-04-03T00:24:52;99685.22;;;0.81;72.76
78317;BME280;67572;50.930;18.276;2023-04-03T00:27:55;99696.56;;;0.82;73.26
78317;BME280;67572;50.930;18.276;2023-04-03T00:30:58;99686.13;;;0.80;73.43
78317;BME280;67572;50.930;18.276;2023-04-03T00:34:02;99692.34;;;0.75;73.25
78317;BME280;67572;50.930;18.276;2023-04-03T00:37:05;99692.56;;;0.64;73.26
78317;BME280;67572;50.930;18.276;2023-04-03T00:40:11;99696.13;;;0.60;73.44
78317;BME280;67572;50.930;18.276;2023-04-03T00:43:18;99709.38;;;0.51;73.08
78317;BME280;67572;50.930;18.276;2023-04-03T00:46:22;99710.22;;;0.53;73.47
78317;BME280;67572;50.930;18.276;2023-04-03T00:49:26;99711.16;;;0.49;73.08
78317;BME280;67572;50.930;18.276;2023-04-03T00:52:31;99711.25;;;0.44;73.12
78317;BME280;67572;50.930;18.276;2023-04-03T00:55:37;99706.19;;;0.35;73.45
78317;BME280;67572;50.930;18.276;2023-04-03T00:58:44;99703.66;;;0.31;73.31
78317;BME280;67572;50.930;18.276;2023-04-03T01:01:51;99716.06;;;0.19;74.09
78317;BME280;67572;50.930;18.276;2023-04-03T01:04:56;99714.38;;;0.17;73.06
78317;BME280;67572;50.930;18.276;2023-04-03T01:08:00;99718.75;;;0.16;73.70
78317;BME280;67572;50.930;18.276;2023-04-03T01:11:05;99710.22;;;0.04;73.90
78317;BME280;67572;50.930;18.276;2023-04-03T01:14:09;99721.47;;;0.07;73.97
78317;BME280;67572;50.930;18.276;2023-04-03T01:17:38;99714.75;;;-0.06;73.93
78317;BME280;67572;50.930;18.276;2023-04-03T01:21:26;99717.44;;;-0.11;74.81
78317;BME280;67572;50.930;18.276;2023-04-03T01:24:35;99722.72;;;-0.14;74.63
78317;BME280;67572;50.930;18.276;2023-04-03T01:27:44;99727.91;;;-0.12;74.74
78317;BME280;67572;50.930;18.276;2023-04-03T01:30:51;99721.09;;;-0.21;75.31
78317;BME280;67572;50.930;18.276;2023-04-03T01:33:57;99719.50;;;-0.33;75.10
78317;BME280;67572;50.930;18.276;2023-04-03T01:37:02;99730.06;;;-0.39;75.41
78317;BME280;67572;50.930;18.276;2023-04-03T01:40:06;99731.91;;;-0.45;75.92
78317;BME280;67572;50.930;18.276;2023-04-03T01:43:10;99725.97;;;-0.57;76.15
78317;BME280;67572;50.930;18.276;2023-04-03T01:46:13;99731.13;;;-0.53;76.88
78317;BME280;67572;50.930;18.276;2023-04-03T01:49:19;99729.59;;;-0.68;76.96
78317;BME280;67572;50.930;18.276;2023-04-03T01:52:22;99733.97;;;-0.70;76.92
78317;BME280;67572;50.930;18.276;2023-04-03T01:55:26;99740.16;;;-0.76;77.40
78317;BME280;67572;50.930;18.276;2023-04-03T01:58:29;99733.28;;;-0.81;77.34
78317;BME280;67572;50.930;18.276;2023-04-03T02:01:33;99742.88;;;-0.85;77.75
78317;BME280;67572;50.930;18.276;2023-04-03T02:04:38;99740.28;;;-0.87;77.76
78317;BME280;67572;50.930;18.276;2023-04-03T02:07:42;99742.09;;;-0.90;77.41
78317;BME280;67572;50.930;18.276;2023-04-03T02:10:47;99749.13;;;-0.95;78.21
78317;BME280;67572;50.930;18.276;2023-04-03T02:13:51;99745.75;;;-1.05;78.44
78317;BME280;67572;50.930;18.276;2023-04-03T02:16:54;99743.16;;;-1.08;78.44
78317;BME280;67572;50.930;18.276;2023-04-03T02:19:59;99748.44;;;-1.11;79.14
78317;BME280;67572;50.930;18.276;2023-04-03T02:23:03;99748.38;;;-1.08;78.93
78317;BME280;67572;50.930;18.276;2023-04-03T02:26:09;99745.00;;;-1.13;78.91
78317;BME280;67572;50.930;18.276;2023-04-03T02:29:12;99755.38;;;-1.10;79.29
78317;BME280;67572;50.930;18.276;2023-04-03T02:32:16;99751.09;;;-1.17;79.38
78317;BME280;67572;50.930;18.276;2023-04-03T02:35:22;99753.75;;;-1.20;79.23
78317;BME280;67572;50.930;18.276;2023-04-03T02:38:27;99759.03;;;-1.26;79.55
78317;BME280;67572;50.930;18.276;2023-04-03T02:41:30;99757.34;;;-1.32;79.57
78317;BME280;67572;50.930;18.276;2023-04-03T02:44:40;99758.19;;;-1.27;79.78
78317;BME280;67572;50.930;18.276;2023-04-03T02:47:44;99765.19;;;-1.32;79.79
78317;BME280;67572;50.930;18.276;2023-04-03T02:50:49;99762.59;;;-1.33;79.83
78317;BME280;67572;50.930;18.276;2023-04-03T02:53:53;99765.25;;;-1.38;79.94
78317;BME280;67572;50.930;18.276;2023-04-03T02:57:01;99771.38;;;-1.44;80.86
78317;BME280;67572;50.930;18.276;2023-04-03T03:00:06;99771.41;;;-1.45;80.66
78317;BME280;67572;50.930;18.276;2023-04-03T03:03:10;99781.81;;;-1.44;80.51
78317;BME280;67572;50.930;18.276;2023-04-03T03:06:17;99780.09;;;-1.43;80.26
78317;BME280;67572;50.930;18.276;2023-04-03T03:09:21;99784.47;;;-1.47;80.66
78317;BME280;67572;50.930;18.276;2023-04-03T03:12:24;99784.56;;;-1.56;80.98
78317;BME280;67572;50.930;18.276;2023-04-03T03:15:28;99786.28;;;-1.55;81.12
78317;BME280;67572;50.930;18.276;2023-04-03T03:18:31;99788.06;;;-1.61;80.79
78317;BME280;67572;50.930;18.276;2023-04-03T03:21:37;99791.53;;;-1.58;80.68
78317;BME280;67572;50.930;18.276;2023-04-03T03:24:40;99782.91;;;-1.64;80.68
78317;BME280;67572;50.930;18.276;2023-04-03T03:27:44;99785.50;;;-1.64;81.38
78317;BME280;67572;50.930;18.276;2023-04-03T03:30:47;99784.59;;;-1.60;80.84
78317;BME280;67572;50.930;18.276;2023-04-03T03:33:52;99787.25;;;-1.65;80.99
78317;BME280;67572;50.930;18.276;2023-04-03T03:36:58;99785.53;;;-1.69;81.45
78317;BME280;67572;50.930;18.276;2023-04-03T03:40:02;99793.41;;;-1.77;81.58
78317;BME280;67572;50.930;18.276;2023-04-03T03:43:07;99792.56;;;-1.79;81.72
78317;BME280;67572;50.930;18.276;2023-04-03T03:46:11;99799.53;;;-1.79;81.65
78317;BME280;67572;50.930;18.276;2023-04-03T03:49:15;99796.00;;;-1.72;81.50
78317;BME280;67572;50.930;18.276;2023-04-03T03:52:20;99796.94;;;-1.82;81.53
78317;BME280;67572;50.930;18.276;2023-04-03T03:55:23;99800.41;;;-1.83;81.64
78317;BME280;67572;50.930;18.276;2023-04-03T03:58:29;99807.38;;;-1.84;81.73
78317;BME280;67572;50.930;18.276;2023-04-03T04:01:33;99799.53;;;-1.82;81.53
78317;BME280;67572;50.930;18.276;2023-04-03T04:04:37;99802.16;;;-1.82;81.31
78317;BME280;67572;50.930;18.276;2023-04-03T04:07:41;99801.28;;;-1.83;81.31
78317;BME280;67572;50.930;18.276;2023-04-03T04:10:45;99806.56;;;-1.90;81.76
78317;BME280;67572;50.930;18.276;2023-04-03T04:13:51;99811.72;;;-1.84;81.37
78317;BME280;67572;50.930;18.276;2023-04-03T04:16:58;99804.88;;;-1.96;81.67
78317;BME280;67572;50.930;18.276;2023-04-03T04:20:05;99808.34;;;-1.96;81.62
78317;BME280;67572;50.930;18.276;2023-04-03T04:23:11;99813.50;;;-1.89;81.19
78317;BME280;67572;50.930;18.276;2023-04-03T04:26:18;99810.94;;;-1.94;81.14
78317;BME280;67572;50.930;18.276;2023-04-03T04:29:23;99817.06;;;-2.00;81.33
78317;BME280;67572;50.930;18.276;2023-04-03T04:32:27;99815.28;;;-1.93;81.54
78317;BME280;67572;50.930;18.276;2023-04-03T04:35:31;99816.16;;;-1.94;81.59
78317;BME280;67572;50.930;18.276;2023-04-03T04:38:36;99826.59;;;-1.99;81.89
78317;BME280;67572;50.930;18.276;2023-04-03T04:41:41;99826.63;;;-2.02;81.85
78317;BME280;67572;50.930;18.276;2023-04-03T04:44:45;99832.66;;;-1.95;81.40
78317;BME280;67572;50.930;18.276;2023-04-03T04:47:49;99836.16;;;-1.99;81.55
78317;BME280;67572;50.930;18.276;2023-04-03T04:50:55;99836.19;;;-2.02;81.31
78317;BME280;67572;50.930;18.276;2023-04-03T04:54:00;99839.66;;;-2.02;81.65
78317;BME280;67572;50.930;18.276;2023-04-03T04:57:03;99842.19;;;-1.91;81.86
78317;BME280;67572;50.930;18.276;2023-04-03T05:00:08;99843.97;;;-1.98;81.56
78317;BME280;67572;50.930;18.276;2023-04-03T05:03:12;99849.16;;;-1.98;81.64
78317;BME280;67572;50.930;18.276;2023-04-03T05:06:15;99851.81;;;-2.01;81.59
78317;BME280;67572;50.930;18.276;2023-04-03T05:09:21;99852.69;;;-2.06;82.11
78317;BME280;67572;50.930;18.276;2023-04-03T05:12:26;99860.56;;;-2.11;82.37
78317;BME280;67572;50.930;18.276;2023-04-03T05:15:34;99854.50;;;-2.11;82.79
78317;BME280;67572;50.930;18.276;2023-04-03T05:18:38;99859.72;;;-2.11;82.68
78317;BME280;67572;50.930;18.276;2023-04-03T05:21:45;99865.75;;;-2.08;82.89
78317;BME280;67572;50.930;18.276;2023-04-03T05:24:52;99864.91;;;-2.10;82.30
78317;BME280;67572;50.930;18.276;2023-04-03T05:27:56;99864.88;;;-2.07;82.16
78317;BME280;67572;50.930;18.276;2023-04-03T05:30:59;99871.81;;;-2.03;82.36
78317;BME280;67572;50.930;18.276;2023-04-03T05:34:08;99865.72;;;-2.02;82.27
78317;BME280;67572;50.930;18.276;2023-04-03T05:37:14;99869.16;;;-1.98;82.68
78317;BME280;67572;50.930;18.276;2023-04-03T05:40:19;99869.94;;;-1.84;82.62
78317;BME280;67572;50.930;18.276;2023-04-03T05:43:26;99877.75;;;-1.84;82.53
78317;BME280;67572;50.930;18.276;2023-04-03T05:46:30;99876.88;;;-1.81;81.78
78317;BME280;67572;50.930;18.276;2023-04-03T05:49:37;99882.75;;;-1.55;81.32
78317;BME280;67572;50.930;18.276;2023-04-03T05:52:46;99886.19;;;-1.51;81.52
78317;BME280;67572;50.930;18.276;2023-04-03T05:55:53;99889.63;;;-1.42;81.72
78317;BME280;67572;50.930;18.276;2023-04-03T05:58:57;99894.84;;;-1.42;81.06
78317;BME280;67572;50.930;18.276;2023-04-03T06:02:02;99894.72;;;-1.29;80.64
78317;BME280;67572;50.930;18.276;2023-04-03T06:05:06;99893.81;;;-1.25;80.28
78317;BME280;67572;50.930;18.276;2023-04-03T06:08:10;99899.09;;;-1.31;80.21
78317;BME280;67572;50.930;18.276;2023-04-03T06:11:15;99908.63;;;-1.29;79.93
78317;BME280;67572;50.930;18.276;2023-04-03T06:14:19;99898.03;;;-1.09;79.36
78317;BME280;67572;50.930;18.276;2023-04-03T06:17:23;99901.47;;;-1.07;79.00
78317;BME280;67572;50.930;18.276;2023-04-03T06:20:28;99906.72;;;-1.05;78.28
78317;BME280;67572;50.930;18.276;2023-04-03T06:23:33;99903.19;;;-1.06;78.02
78317;BME280;67572;50.930;18.276;2023-04-03T06:26:38;99910.91;;;-0.91;77.63
78317;BME280;67572;50.930;18.276;2023-04-03T06:29:41;99911.78;;;-0.93;77.63
78317;BME280;67572;50.930;18.276;2023-04-03T06:32:45;99920.38;;;-0.84;77.47
78317;BME280;67572;50.930;18.276;2023-04-03T06:35:48;99922.78;;;-0.62;77.02
78317;BME280;67572;50.930;18.276;2023-04-03T06:38:52;99920.09;;;-0.56;76.17
78317;BME280;67572;50.930;18.276;2023-04-03T06:41:57;99919.13;;;-0.44;75.92
78317;BME280;67572;50.930;18.276;2023-04-03T06:45:09;99923.25;;;-0.26;75.49
78317;BME280;67572;50.930;18.276;2023-04-03T06:48:13;99921.47;;;-0.24;74.52
78317;BME280;67572;50.930;18.276;2023-04-03T06:51:18;99916.09;;;-0.12;74.54
78317;BME280;67572;50.930;18.276;2023-04-03T06:54:22;99928.13;;;0.01;73.56
78317;BME280;67572;50.930;18.276;2023-04-03T06:57:27;99923.72;;;0.05;72.79
78317;BME280;67572;50.930;18.276;2023-04-03T07:00:31;99924.88;;;-0.15;71.95
78317;BME280;67572;50.930;18.276;2023-04-03T07:03:36;99931.34;;;0.23;71.74
78317;BME280;67572;50.930;18.276;2023-04-03T07:06:40;99922.25;;;0.47;71.65
78317;BME280;67572;50.930;18.276;2023-04-03T07:09:45;99939.94;;;0.30;70.60
78317;BME280;67572;50.930;18.276;2023-04-03T07:12:51;99930.31;;;0.33;70.90
78317;BME280;67572;50.930;18.276;2023-04-03T07:15:55;99938.50;;;0.69;70.82
78317;BME280;67572;50.930;18.276;2023-04-03T07:18:58;99944.06;;;0.47;70.01
78317;BME280;67572;50.930;18.276;2023-04-03T07:22:02;99947.78;;;0.30;68.54
78317;BME280;67572;50.930;18.276;2023-04-03T07:25:06;99952.56;;;0.60;70.58
78317;BME280;67572;50.930;18.276;2023-04-03T07:28:15;99964.81;;;0.58;70.03
78317;BME280;67572;50.930;18.276;2023-04-03T07:31:20;99970.00;;;0.63;69.07
78317;BME280;67572;50.930;18.276;2023-04-03T07:34:23;99965.22;;;0.88;68.95
78317;BME280;67572;50.930;18.276;2023-04-03T07:37:27;99963.34;;;0.96;69.46
78317;BME280;67572;50.930;18.276;2023-04-03T07:40:31;99963.56;;;0.82;68.93
78317;BME280;67572;50.930;18.276;2023-04-03T07:43:38;99967.09;;;0.79;69.34
78317;BME280;67572;50.930;18.276;2023-04-03T07:46:43;99968.00;;;1.31;70.05
78317;BME280;67572;50.930;18.276;2023-04-03T07:49:50;99965.13;;;0.94;66.06
78317;BME280;67572;50.930;18.276;2023-04-03T07:52:53;99964.28;;;1.44;65.94
78317;BME280;67572;50.930;18.276;2023-04-03T07:56:00;99970.63;;;1.31;66.83
78317;BME280;67572;50.930;18.276;2023-04-03T07:59:06;99968.44;;;1.54;67.67
78317;BME280;67572;50.930;18.276;2023-04-03T08:02:10;99962.94;;;1.22;64.71
78317;BME280;67572;50.930;18.276;2023-04-03T08:05:14;99967.25;;;1.71;65.49
78317;BME280;67572;50.930;18.276;2023-04-03T08:08:19;99963.28;;;1.50;63.38
78317;BME280;67572;50.930;18.276;2023-04-03T08:11:25;99970.59;;;1.32;65.02
78317;BME280;67572;50.930;18.276;2023-04-03T08:14:32;99960.59;;;1.03;61.29
78317;BME280;67572;50.930;18.276;2023-04-03T08:17:36;99971.72;;;1.18;60.40
78317;BME280;67572;50.930;18.276;2023-04-03T08:20:40;99967.56;;;1.54;61.19
78317;BME280;67572;50.930;18.276;2023-04-03T08:23:43;99963.81;;;1.69;61.91
78317;BME280;67572;50.930;18.276;2023-04-03T08:26:47;99965.28;;;1.35;61.09
78317;BME280;67572;50.930;18.276;2023-04-03T08:29:54;99960.22;;;2.16;61.48
78317;BME280;67572;50.930;18.276;2023-04-03T08:33:00;99961.22;;;2.09;55.97
78317;BME280;67572;50.930;18.276;2023-04-03T08:36:17;99962.47;;;2.33;57.58
78317;BME280;67572;50.930;18.276;2023-04-03T08:39:21;99965.53;;;2.13;54.45
78317;BME280;67572;50.930;18.276;2023-04-03T08:42:36;99957.28;;;2.30;55.36
78317;BME280;67572;50.930;18.276;2023-04-03T08:45:50;99964.56;;;2.56;57.79
78317;BME280;67572;50.930;18.276;2023-04-03T08:48:58;99966.59;;;2.44;56.56
78317;BME280;67572;50.930;18.276;2023-04-03T08:52:08;99959.66;;;2.40;52.90
78317;BME280;67572;50.930;18.276;2023-04-03T08:55:22;99969.06;;;2.10;51.05
78317;BME280;67572;50.930;18.276;2023-04-03T08:58:29;99966.19;;;1.79;54.52
78317;BME280;67572;50.930;18.276;2023-04-03T09:01:38;99973.06;;;1.86;56.08
78317;BME280;67572;50.930;18.276;2023-04-03T09:04:43;99970.84;;;2.48;55.80
78317;BME280;67572;50.930;18.276;2023-04-03T09:07:49;99973.94;;;2.67;53.12
78317;BME280;67572;50.930;18.276;2023-04-03T09:11:04;99981.34;;;2.48;52.73
78317;BME280;67572;50.930;18.276;2023-04-03T09:14:15;99985.38;;;1.81;53.43
78317;BME280;67572;50.930;18.276;2023-04-03T09:17:31;99978.84;;;1.59;53.24
78317;BME280;67572;50.930;18.276;2023-04-03T09:20:44;99977.28;;;1.49;53.92
78317;BME280;67572;50.930;18.276;2023-04-03T09:23:51;99980.47;;;1.64;53.51
78317;BME280;67572;50.930;18.276;2023-04-03T09:26:56;99983.59;;;2.27;54.33
78317;BME280;67572;50.930;18.276;2023-04-03T09:30:03;99982.38;;;2.01;50.76
78317;BME280;67572;50.930;18.276;2023-04-03T09:33:11;99986.97;;;2.32;54.12
78317;BME280;67572;50.930;18.276;2023-04-03T09:36:37;99995.09;;;1.78;52.21
78317;BME280;67572;50.930;18.276;2023-04-03T09:39:50;99995.19;;;1.72;52.58
78317;BME280;67572;50.930;18.276;2023-04-03T09:42:56;99998.50;;;1.81;53.43
78317;BME280;67572;50.930;18.276;2023-04-03T09:46:25;99984.00;;;1.63;51.81
78317;BME280;67572;50.930;18.276;2023-04-03T09:49:31;99982.66;;;1.87;52.72
78317;BME280;67572;50.930;18.276;2023-04-03T09:52:35;99994.84;;;1.88;53.31
78317;BME280;67572;50.930;18.276;2023-04-03T09:55:42;99979.75;;;2.01;53.05
78317;BME280;67572;50.930;18.276;2023-04-03T09:58:48;99986.56;;;2.52;54.19
78317;BME280;67572;50.930;18.276;2023-04-03T10:02:00;99998.53;;;2.23;53.16
78317;BME280;67572;50.930;18.276;2023-04-03T10:05:26;99988.53;;;2.42;49.64
78317;BME280;67572;50.930;18.276;2023-04-03T10:08:31;99976.66;;;3.00;50.18
78317;BME280;67572;50.930;18.276;2023-04-03T10:11:34;99973.72;;;3.46;51.16
78317;BME280;67572;50.930;18.276;2023-04-03T10:14:39;99980.34;;;4.25;52.71
78317;BME280;67572;50.930;18.276;2023-04-03T10:17:51;99973.97;;;3.70;49.87
78317;BME280;67572;50.930;18.276;2023-04-03T10:21:02;99981.44;;;3.85;49.00
78317;BME280;67572;50.930;18.276;2023-04-03T10:24:27;99983.91;;;3.91;51.14
78317;BME280;67572;50.930;18.276;2023-04-03T10:27:38;99982.16;;;3.26;50.41
78317;BME280;67572;50.930;18.276;2023-04-03T10:30:50;99971.34;;;3.37;48.12
78317;BME280;67572;50.930;18.276;2023-04-03T10:34:03;99983.25;;;3.18;48.07
78317;BME280;67572;50.930;18.276;2023-04-03T10:37:15;99988.28;;;3.27;46.82
78317;BME280;67572;50.930;18.276;2023-04-03T10:40:29;99975.41;;;4.12;49.51
78317;BME280;67572;50.930;18.276;2023-04-03T10:43:42;99968.28;;;3.86;46.56
78317;BME280;67572;50.930;18.276;2023-04-03T10:46:49;99976.00;;;3.27;48.32
78317;BME280;67572;50.930;18.276;2023-04-03T10:50:02;99980.28;;;4.26;47.69
78317;BME280;67572;50.930;18.276;2023-04-03T10:53:20;99965.50;;;4.50;47.96
78317;BME280;67572;50.930;18.276;2023-04-03T10:56:36;99976.97;;;3.57;47.86
78317;BME280;67572;50.930;18.276;2023-04-03T10:59:44;99966.34;;;5.33;49.70
78317;BME280;67572;50.930;18.276;2023-04-03T11:02:52;99966.00;;;4.04;46.37
78317;BME280;67572;50.930;18.276;2023-04-03T11:06:01;99965.56;;;3.23;47.97
78317;BME280;67572;50.930;18.276;2023-04-03T11:09:15;99970.22;;;3.13;48.07
78317;BME280;67572;50.930;18.276;2023-04-03T11:12:25;99962.97;;;3.88;46.75
78317;BME280;67572;50.930;18.276;2023-04-03T11:15:31;99958.56;;;4.76;49.33
78317;BME280;67572;50.930;18.276;2023-04-03T11:18:41;99958.47;;;4.51;45.70
78317;BME280;67572;50.930;18.276;2023-04-03T11:21:52;99954.44;;;4.95;45.03
78317;BME280;67572;50.930;18.276;2023-04-03T11:25:04;99961.97;;;3.27;46.02
78317;BME280;67572;50.930;18.276;2023-04-03T11:28:13;99962.53;;;4.33;48.39
78317;BME280;67572;50.930;18.276;2023-04-03T11:31:29;99956.97;;;4.98;46.53
78317;BME280;67572;50.930;18.276;2023-04-03T11:34:39;99953.69;;;5.18;44.52
78317;BME280;67572;50.930;18.276;2023-04-03T11:37:47;99946.63;;;5.45;45.19
78317;BME280;67572;50.930;18.276;2023-04-03T11:40:55;99948.22;;;5.49;44.11
78317;BME280;67572;50.930;18.276;2023-04-03T11:44:01;99951.66;;;4.14;42.10
78317;BME280;67572;50.930;18.276;2023-04-03T11:47:09;99952.09;;;4.58;44.04
78317;BME280;67572;50.930;18.276;2023-04-03T11:53:49;99933.78;;;4.55;40.42
78317;BME280;67572;50.930;18.276;2023-04-03T11:56:55;99939.66;;;5.67;44.85
78317;BME280;67572;50.930;18.276;2023-04-03T11:59:59;99952.06;;;4.31;42.57
78317;BME280;67572;50.930;18.276;2023-04-03T12:07:12;99946.50;;;4.68;38.45
78317;BME280;67572;50.930;18.276;2023-04-03T12:10:19;99934.22;;;5.22;42.15
78317;BME280;67572;50.930;18.276;2023-04-03T12:13:34;99938.84;;;5.15;41.14
78317;BME280;67572;50.930;18.276;2023-04-03T12:16:43;99951.09;;;4.04;43.94
78317;BME280;67572;50.930;18.276;2023-04-03T12:19:48;99945.56;;;4.13;44.65
78317;BME280;67572;50.930;18.276;2023-04-03T12:23:07;99943.09;;;4.65;42.97
78317;BME280;67572;50.930;18.276;2023-04-03T12:26:22;99940.13;;;5.28;41.39
78317;BME280;67572;50.930;18.276;2023-04-03T12:29:38;99944.16;;;4.87;41.85
78317;BME280;67572;50.930;18.276;2023-04-03T12:33:09;99936.78;;;5.23;44.83
78317;BME280;67572;50.930;18.276;2023-04-03T12:36:23;99951.63;;;3.86;44.30
78317;BME280;67572;50.930;18.276;2023-04-03T12:39:44;99954.09;;;3.90;41.99
78317;BME280;67572;50.930;18.276;2023-04-03T12:43:18;99944.06;;;5.42;43.20
78317;BME280;67572;50.930;18.276;2023-04-03T12:46:35;99940.34;;;5.22;41.81
78317;BME280;67572;50.930;18.276;2023-04-03T12:49:42;99953.97;;;4.26;47.34
78317;BME280;67572;50.930;18.276;2023-04-03T12:52:51;99950.63;;;4.20;45.73
78317;BME280;67572;50.930;18.276;2023-04-03T12:56:22;99941.56;;;4.58;44.58
78317;BME280;67572;50.930;18.276;2023-04-03T12:59:26;99943.09;;;4.65;45.29
78317;BME280;67572;50.930;18.276;2023-04-03T13:02:33;99943.00;;;5.22;43.81
78317;BME280;67572;50.930;18.276;2023-04-03T13:05:38;99949.50;;;3.68;43.84
78317;BME280;67572;50.930;18.276;2023-04-03T13:08:49;99947.34;;;5.23;44.89
78317;BME280;67572;50.930;18.276;2023-04-03T13:11:56;99938.97;;;6.10;41.58
78317;BME280;67572;50.930;18.276;2023-04-03T13:15:03;99946.47;;;4.70;44.79
78317;BME280;67572;50.930;18.276;2023-04-03T13:18:28;99962.75;;;3.96;45.21
78317;BME280;67572;50.930;18.276;2023-04-03T13:21:33;99948.16;;;5.25;42.31
78317;BME280;67572;50.930;18.276;2023-04-03T13:24:38;99947.94;;;5.05;38.65
78317;BME280;67572;50.930;18.276;2023-04-03T13:27:43;99934.63;;;4.55;43.40
78317;BME280;67572;50.930;18.276;2023-04-03T13:30:59;99939.13;;;3.93;45.03
78317;BME280;67572;50.930;18.276;2023-04-03T13:34:10;99943.28;;;3.70;43.33
78317;BME280;67572;50.930;18.276;2023-04-03T13:37:23;99935.50;;;4.84;42.69
78317;BME280;67572;50.930;18.276;2023-04-03T13:40:27;99940.66;;;4.87;41.40
78317;BME280;67572;50.930;18.276;2023-04-03T13:43:42;99938.50;;;4.71;42.34
78317;BME280;67572;50.930;18.276;2023-04-03T13:46:46;99933.91;;;4.78;42.45
78317;BME280;67572;50.930;18.276;2023-04-03T13:50:03;99937.53;;;4.18;44.03
78317;BME280;67572;50.930;18.276;2023-04-03T13:53:11;99943.31;;;4.00;44.46
78317;BME280;67572;50.930;18.276;2023-04-03T13:56:19;99938.00;;;3.72;44.12
78317;BME280;67572;50.930;18.276;2023-04-03T13:59:28;99944.84;;;3.77;43.34
78317;BME280;67572;50.930;18.276;2023-04-03T14:02:33;99936.19;;;5.15;43.47
78317;BME280;67572;50.930;18.276;2023-04-03T14:05:38;99934.28;;;4.94;42.41
78317;BME280;67572;50.930;18.276;2023-04-03T14:08:43;99941.34;;;3.77;42.26
78317;BME280;67572;50.930;18.276;2023-04-03T14:11:47;99941.66;;;3.66;43.94
78317;BME280;67572;50.930;18.276;2023-04-03T14:14:52;99936.75;;;3.52;43.67
78317;BME280;67572;50.930;18.276;2023-04-03T14:17:55;99937.19;;;4.29;43.00
78317;BME280;67572;50.930;18.276;2023-04-03T14:21:03;99931.81;;;4.88;41.56
78317;BME280;67572;50.930;18.276;2023-04-03T14:24:07;99923.13;;;4.58;42.76
78317;BME280;67572;50.930;18.276;2023-04-03T14:27:16;99936.13;;;3.75;45.40
78317;BME280;67572;50.930;18.276;2023-04-03T14:30:22;99935.69;;;3.59;46.70
78317;BME280;67572;50.930;18.276;2023-04-03T14:33:26;99946.81;;;3.37;44.56
78317;BME280;67572;50.930;18.276;2023-04-03T14:36:34;99942.38;;;3.39;45.44
78317;BME280;67572;50.930;18.276;2023-04-03T14:39:38;99937.13;;;3.39;44.07
78317;BME280;67572;50.930;18.276;2023-04-03T14:42:44;99937.47;;;3.90;41.58
78317;BME280;67572;50.930;18.276;2023-04-03T14:45:50;99940.47;;;3.76;43.96
78317;BME280;67572;50.930;18.276;2023-04-03T14:48:54;99934.56;;;3.68;44.60
78317;BME280;67572;50.930;18.276;2023-04-03T14:51:58;99947.63;;;3.39;47.79
78317;BME280;67572;50.930;18.276;2023-04-03T14:55:04;99939.19;;;3.27;46.56
78317;BME280;67572;50.930;18.276;2023-04-03T14:58:14;99943.78;;;3.19;45.81
78317;BME280;67572;50.930;18.276;2023-04-03T15:01:18;99940.88;;;3.30;44.93
78317;BME280;67572;50.930;18.276;2023-04-03T15:04:22;99941.88;;;3.26;44.85
78317;BME280;67572;50.930;18.276;2023-04-03T15:07:30;99942.47;;;3.68;45.64
78317;BME280;67572;50.930;18.276;2023-04-03T15:10:35;99943.91;;;3.47;45.18
78317;BME280;67572;50.930;18.276;2023-04-03T15:13:39;99950.88;;;3.50;45.84
78317;BME280;67572;50.930;18.276;2023-04-03T15:16:43;99952.75;;;3.45;47.11
78317;BME280;67572;50.930;18.276;2023-04-03T15:19:47;99940.16;;;3.23;47.74
78317;BME280;67572;50.930;18.276;2023-04-03T15:22:52;99940.50;;;3.10;44.74
78317;BME280;67572;50.930;18.276;2023-04-03T15:25:58;99946.13;;;2.94;46.16
78317;BME280;67572;50.930;18.276;2023-04-03T15:29:03;99950.66;;;2.89;47.17
78317;BME280;67572;50.930;18.276;2023-04-03T15:32:07;99946.91;;;2.99;47.70
78317;BME280;67572;50.930;18.276;2023-04-03T15:35:11;99949.88;;;2.86;46.96
78317;BME280;67572;50.930;18.276;2023-04-03T15:38:16;99951.72;;;2.82;46.89
78317;BME280;67572;50.930;18.276;2023-04-03T15:41:20;99956.19;;;2.77;45.85
78317;BME280;67572;50.930;18.276;2023-04-03T15:44:23;99962.41;;;2.74;48.09
78317;BME280;67572;50.930;18.276;2023-04-03T15:47:27;99965.03;;;2.74;46.87
78317;BME280;67572;50.930;18.276;2023-04-03T15:50:31;99959.63;;;2.81;49.90
78317;BME280;67572;50.930;18.276;2023-04-03T15:53:36;99965.66;;;2.84;50.29
78317;BME280;67572;50.930;18.276;2023-04-03T15:56:39;99954.16;;;2.90;49.54
78317;BME280;67572;50.930;18.276;2023-04-03T15:59:42;99951.75;;;2.81;47.83
78317;BME280;67572;50.930;18.276;2023-04-03T16:02:47;99965.06;;;2.73;49.15
78317;BME280;67572;50.930;18.276;2023-04-03T16:05:52;99956.56;;;2.62;45.49
78317;BME280;67572;50.930;18.276;2023-04-03T16:08:57;99963.66;;;2.58;45.53
78317;BME280;67572;50.930;18.276;2023-04-03T16:12:01;99963.88;;;2.47;45.34
78317;BME280;67572;50.930;18.276;2023-04-03T16:15:05;99962.81;;;2.58;46.42
78317;BME280;67572;50.930;18.276;2023-04-03T16:18:10;99963.16;;;2.42;47.58
78317;BME280;67572;50.930;18.276;2023-04-03T16:21:16;99968.41;;;2.41;47.94
78317;BME280;67572;50.930;18.276;2023-04-03T16:24:21;99967.63;;;2.37;47.47
78317;BME280;67572;50.930;18.276;2023-04-03T16:27:27;99966.75;;;2.37;47.61
78317;BME280;67572;50.930;18.276;2023-04-03T16:30:33;99953.34;;;2.50;48.88
78317;BME280;67572;50.930;18.276;2023-04-03T16:33:36;99970.16;;;2.40;47.84